sensor_id;sensor_type;location;lat;lon;timestamp;P1;durP1;ratioP1;P2;durP2;ratioP2
12181;SDS011;6154;51.550;12.138;2023-07-13T00:01:25;1.75;;;0.82;;
12181;SDS011;6154;51.550;12.138;2023-07-13T00:03:54;0.65;;;0.52;;
12181;SDS011;6154;51.550;12.138;2023-07-13T00:06:22;2.37;;;0.70;;
12181;SDS011;6154;51.550;12.138;2023-07-13T00:08:51;0.62;;;0.62;;
12181;SDS011;6154;51.550;12.138;2023-07-13T00:11:19;1.25;;;0.55;;
12181;SDS011;6154;51.550;12.138;2023-07-13T00:13:48;1.98;;;0.85;;
12181;SDS011;6154;51.550;12.138;2023-07-13T00:16:16;1.90;;;0.60;;
12181;SDS011;6154;51.550;12.138;2023-07-13T00:18:47;0.88;;;0.70;;
12181;SDS011;6154;51.550;12.138;2023-07-13T00:21:15;3.60;;;0.70;;
12181;SDS011;6154;51.550;12.138;2023-07-13T00:23:44;0.50;;;0.50;;
12181;SDS011;6154;51.550;12.138;2023-07-13T00:26:12;0.50;;;0.50;;
12181;SDS011;6154;51.550;12.138;2023-07-13T00:28:41;1.92;;;0.68;;
12181;SDS011;6154;51.550;12.138;2023-07-13T00:31:09;0.68;;;0.62;;
12181;SDS011;6154;51.550;12.138;2023-07-13T00:33:39;2.00;;;1.00;;
12181;SDS011;6154;51.550;12.138;2023-07-13T00:36:10;4.70;;;0.82;;
12181;SDS011;6154;51.550;12.138;2023-07-13T00:38:39;2.90;;;0.85;;
12181;SDS011;6154;51.550;12.138;2023-07-13T00:41:08;3.12;;;0.70;;
12181;SDS011;6154;51.550;12.138;2023-07-13T00:43:36;3.17;;;0.82;;
12181;SDS011;6154;51.550;12.138;2023-07-13T00:46:10;0.98;;;0.60;;
12181;SDS011;6154;51.550;12.138;2023-07-13T00:48:42;1.05;;;0.82;;
12181;SDS011;6154;51.550;12.138;2023-07-13T00:51:17;0.73;;;0.70;;
12181;SDS011;6154;51.550;12.138;2023-07-13T00:53:49;1.45;;;0.70;;
12181;SDS011;6154;51.550;12.138;2023-07-13T00:56:18;1.10;;;0.80;;
12181;SDS011;6154;51.550;12.138;2023-07-13T00:58:47;7.43;;;0.90;;
12181;SDS011;6154;51.550;12.138;2023-07-13T01:01:17;3.37;;;0.77;;
12181;SDS011;6154;51.550;12.138;2023-07-13T01:03:46;0.95;;;0.70;;
12181;SDS011;6154;51.550;12.138;2023-07-13T01:06:14;2.85;;;0.65;;
12181;SDS011;6154;51.550;12.138;2023-07-13T01:08:46;0.85;;;0.70;;
12181;SDS011;6154;51.550;12.138;2023-07-13T01:11:18;0.50;;;0.50;;
12181;SDS011;6154;51.550;12.138;2023-07-13T01:13:48;2.58;;;0.70;;
12181;SDS011;6154;51.550;12.138;2023-07-13T01:16:19;1.45;;;0.70;;
12181;SDS011;6154;51.550;12.138;2023-07-13T01:18:52;1.60;;;0.70;;
12181;SDS011;6154;51.550;12.138;2023-07-13T01:21:22;4.65;;;1.20;;
12181;SDS011;6154;51.550;12.138;2023-07-13T01:23:51;5.57;;;1.10;;
12181;SDS011;6154;51.550;12.138;2023-07-13T01:26:20;1.33;;;0.73;;
12181;SDS011;6154;51.550;12.138;2023-07-13T01:28:48;3.30;;;0.77;;
12181;SDS011;6154;51.550;12.138;2023-07-13T01:31:16;1.27;;;0.75;;
12181;SDS011;6154;51.550;12.138;2023-07-13T01:33:45;2.00;;;0.77;;
12181;SDS011;6154;51.550;12.138;2023-07-13T01:36:13;1.77;;;0.90;;
12181;SDS011;6154;51.550;12.138;2023-07-13T01:38:43;3.75;;;0.90;;
12181;SDS011;6154;51.550;12.138;2023-07-13T01:41:12;1.55;;;1.10;;
12181;SDS011;6154;51.550;12.138;2023-07-13T01:43:40;1.55;;;0.85;;
12181;SDS011;6154;51.550;12.138;2023-07-13T01:46:09;1.83;;;0.80;;
12181;SDS011;6154;51.550;12.138;2023-07-13T01:48:49;1.25;;;1.10;;
12181;SDS011;6154;51.550;12.138;2023-07-13T01:51:19;2.08;;;0.95;;
12181;SDS011;6154;51.550;12.138;2023-07-13T01:53:48;0.62;;;0.62;;
12181;SDS011;6154;51.550;12.138;2023-07-13T01:56:18;0.70;;;0.70;;
12181;SDS011;6154;51.550;12.138;2023-07-13T01:58:46;1.37;;;0.77;;
12181;SDS011;6154;51.550;12.138;2023-07-13T02:01:14;1.77;;;1.08;;
12181;SDS011;6154;51.550;12.138;2023-07-13T02:03:43;0.98;;;0.90;;
12181;SDS011;6154;51.550;12.138;2023-07-13T02:06:11;1.30;;;1.08;;
12181;SDS011;6154;51.550;12.138;2023-07-13T02:08:40;2.90;;;1.50;;
12181;SDS011;6154;51.550;12.138;2023-07-13T02:11:11;2.20;;;1.12;;
12181;SDS011;6154;51.550;12.138;2023-07-13T02:13:39;1.80;;;1.20;;
12181;SDS011;6154;51.550;12.138;2023-07-13T02:16:08;1.70;;;1.23;;
12181;SDS011;6154;51.550;12.138;2023-07-13T02:18:36;3.00;;;1.15;;
12181;SDS011;6154;51.550;12.138;2023-07-13T02:21:05;1.70;;;1.27;;
12181;SDS011;6154;51.550;12.138;2023-07-13T02:23:33;3.90;;;1.27;;
12181;SDS011;6154;51.550;12.138;2023-07-13T02:26:03;1.45;;;1.25;;
12181;SDS011;6154;51.550;12.138;2023-07-13T02:28:33;2.22;;;1.08;;
12181;SDS011;6154;51.550;12.138;2023-07-13T02:31:05;1.55;;;0.90;;
12181;SDS011;6154;51.550;12.138;2023-07-13T02:33:34;1.67;;;1.20;;
12181;SDS011;6154;51.550;12.138;2023-07-13T02:36:03;1.02;;;0.85;;
12181;SDS011;6154;51.550;12.138;2023-07-13T02:38:33;5.05;;;1.17;;
12181;SDS011;6154;51.550;12.138;2023-07-13T02:41:03;1.70;;;1.00;;
12181;SDS011;6154;51.550;12.138;2023-07-13T02:43:31;1.65;;;1.25;;
12181;SDS011;6154;51.550;12.138;2023-07-13T02:46:01;1.00;;;1.00;;
12181;SDS011;6154;51.550;12.138;2023-07-13T02:48:35;1.80;;;0.82;;
12181;SDS011;6154;51.550;12.138;2023-07-13T02:51:05;1.80;;;1.20;;
12181;SDS011;6154;51.550;12.138;2023-07-13T02:53:35;2.12;;;1.20;;
12181;SDS011;6154;51.550;12.138;2023-07-13T02:56:03;1.30;;;1.20;;
12181;SDS011;6154;51.550;12.138;2023-07-13T02:58:32;0.90;;;0.90;;
12181;SDS011;6154;51.550;12.138;2023-07-13T03:01:07;1.95;;;0.95;;
12181;SDS011;6154;51.550;12.138;2023-07-13T03:03:37;5.30;;;1.30;;
12181;SDS011;6154;51.550;12.138;2023-07-13T03:06:06;1.23;;;0.90;;
12181;SDS011;6154;51.550;12.138;2023-07-13T03:08:36;0.90;;;0.90;;
12181;SDS011;6154;51.550;12.138;2023-07-13T03:11:06;7.07;;;1.12;;
12181;SDS011;6154;51.550;12.138;2023-07-13T03:13:36;1.30;;;0.95;;
12181;SDS011;6154;51.550;12.138;2023-07-13T03:16:07;1.45;;;1.27;;
12181;SDS011;6154;51.550;12.138;2023-07-13T03:18:37;3.20;;;1.20;;
12181;SDS011;6154;51.550;12.138;2023-07-13T03:21:06;2.40;;;1.30;;
12181;SDS011;6154;51.550;12.138;2023-07-13T03:23:34;1.73;;;1.15;;
12181;SDS011;6154;51.550;12.138;2023-07-13T03:26:04;3.47;;;1.20;;
12181;SDS011;6154;51.550;12.138;2023-07-13T03:28:34;3.60;;;1.40;;
12181;SDS011;6154;51.550;12.138;2023-07-13T03:31:04;1.60;;;1.12;;
12181;SDS011;6154;51.550;12.138;2023-07-13T03:33:35;3.45;;;1.55;;
12181;SDS011;6154;51.550;12.138;2023-07-13T03:36:05;1.65;;;1.30;;
12181;SDS011;6154;51.550;12.138;2023-07-13T03:38:35;2.60;;;1.20;;
12181;SDS011;6154;51.550;12.138;2023-07-13T03:41:03;2.33;;;1.12;;
12181;SDS011;6154;51.550;12.138;2023-07-13T03:43:31;1.80;;;1.20;;
12181;SDS011;6154;51.550;12.138;2023-07-13T03:45:59;3.10;;;1.27;;
12181;SDS011;6154;51.550;12.138;2023-07-13T03:48:27;3.20;;;1.50;;
12181;SDS011;6154;51.550;12.138;2023-07-13T03:50:57;1.40;;;1.30;;
12181;SDS011;6154;51.550;12.138;2023-07-13T03:53:26;3.47;;;1.12;;
12181;SDS011;6154;51.550;12.138;2023-07-13T03:55:54;2.60;;;1.30;;
12181;SDS011;6154;51.550;12.138;2023-07-13T03:58:28;2.62;;;1.42;;
12181;SDS011;6154;51.550;12.138;2023-07-13T04:00:59;1.90;;;1.42;;
12181;SDS011;6154;51.550;12.138;2023-07-13T04:03:29;2.28;;;1.10;;
12181;SDS011;6154;51.550;12.138;2023-07-13T04:06:01;1.35;;;1.25;;
12181;SDS011;6154;51.550;12.138;2023-07-13T04:08:32;2.75;;;1.58;;
12181;SDS011;6154;51.550;12.138;2023-07-13T04:11:03;1.05;;;0.75;;
12181;SDS011;6154;51.550;12.138;2023-07-13T04:13:32;1.27;;;1.00;;
12181;SDS011;6154;51.550;12.138;2023-07-13T04:16:01;1.17;;;1.00;;
12181;SDS011;6154;51.550;12.138;2023-07-13T04:18:29;2.10;;;1.48;;
12181;SDS011;6154;51.550;12.138;2023-07-13T04:20:58;1.80;;;1.00;;
12181;SDS011;6154;51.550;12.138;2023-07-13T04:23:28;1.20;;;1.10;;
12181;SDS011;6154;51.550;12.138;2023-07-13T04:25:56;4.95;;;1.23;;
12181;SDS011;6154;51.550;12.138;2023-07-13T04:28:25;2.80;;;1.10;;
12181;SDS011;6154;51.550;12.138;2023-07-13T04:30:54;2.00;;;0.88;;
12181;SDS011;6154;51.550;12.138;2023-07-13T04:33:23;4.80;;;1.50;;
12181;SDS011;6154;51.550;12.138;2023-07-13T04:35:52;1.73;;;1.20;;
12181;SDS011;6154;51.550;12.138;2023-07-13T04:38:23;5.32;;;1.25;;
12181;SDS011;6154;51.550;12.138;2023-07-13T04:40:56;5.10;;;1.60;;
12181;SDS011;6154;51.550;12.138;2023-07-13T04:43:26;2.40;;;1.30;;
12181;SDS011;6154;51.550;12.138;2023-07-13T04:45:56;3.05;;;1.00;;
12181;SDS011;6154;51.550;12.138;2023-07-13T04:48:25;3.12;;;1.20;;
12181;SDS011;6154;51.550;12.138;2023-07-13T04:50:56;1.70;;;1.15;;
12181;SDS011;6154;51.550;12.138;2023-07-13T04:53:26;2.00;;;1.25;;
12181;SDS011;6154;51.550;12.138;2023-07-13T04:55:57;1.58;;;1.08;;
12181;SDS011;6154;51.550;12.138;2023-07-13T04:58:27;3.00;;;1.87;;
12181;SDS011;6154;51.550;12.138;2023-07-13T05:00:59;5.22;;;1.30;;
12181;SDS011;6154;51.550;12.138;2023-07-13T05:03:29;1.73;;;1.30;;
12181;SDS011;6154;51.550;12.138;2023-07-13T05:05:58;2.45;;;0.95;;
12181;SDS011;6154;51.550;12.138;2023-07-13T05:08:28;3.15;;;1.27;;
12181;SDS011;6154;51.550;12.138;2023-07-13T05:11:00;3.58;;;1.20;;
12181;SDS011;6154;51.550;12.138;2023-07-13T05:13:29;3.37;;;1.67;;
12181;SDS011;6154;51.550;12.138;2023-07-13T05:15:58;1.20;;;1.10;;
12181;SDS011;6154;51.550;12.138;2023-07-13T05:18:27;3.05;;;1.15;;
12181;SDS011;6154;51.550;12.138;2023-07-13T05:20:57;2.72;;;1.08;;
12181;SDS011;6154;51.550;12.138;2023-07-13T05:23:26;1.77;;;1.15;;
12181;SDS011;6154;51.550;12.138;2023-07-13T05:25:55;2.08;;;1.10;;
12181;SDS011;6154;51.550;12.138;2023-07-13T05:28:25;2.92;;;1.08;;
12181;SDS011;6154;51.550;12.138;2023-07-13T05:30:56;2.42;;;1.10;;
12181;SDS011;6154;51.550;12.138;2023-07-13T05:33:25;2.92;;;1.15;;
12181;SDS011;6154;51.550;12.138;2023-07-13T05:35:54;1.33;;;0.85;;
12181;SDS011;6154;51.550;12.138;2023-07-13T05:38:22;4.28;;;1.35;;
12181;SDS011;6154;51.550;12.138;2023-07-13T05:40:52;2.33;;;1.30;;
12181;SDS011;6154;51.550;12.138;2023-07-13T05:43:21;2.35;;;1.27;;
12181;SDS011;6154;51.550;12.138;2023-07-13T05:45:52;1.67;;;1.27;;
12181;SDS011;6154;51.550;12.138;2023-07-13T05:48:22;1.40;;;0.90;;
12181;SDS011;6154;51.550;12.138;2023-07-13T05:50:50;1.15;;;1.00;;
12181;SDS011;6154;51.550;12.138;2023-07-13T05:53:19;1.37;;;0.90;;
12181;SDS011;6154;51.550;12.138;2023-07-13T05:55:47;1.90;;;1.05;;
12181;SDS011;6154;51.550;12.138;2023-07-13T05:58:17;3.85;;;1.00;;
12181;SDS011;6154;51.550;12.138;2023-07-13T06:00:46;3.75;;;0.95;;
12181;SDS011;6154;51.550;12.138;2023-07-13T06:03:16;1.48;;;0.95;;
12181;SDS011;6154;51.550;12.138;2023-07-13T06:05:45;0.80;;;0.80;;
12181;SDS011;6154;51.550;12.138;2023-07-13T06:08:13;1.35;;;0.85;;
12181;SDS011;6154;51.550;12.138;2023-07-13T06:10:42;2.08;;;0.93;;
12181;SDS011;6154;51.550;12.138;2023-07-13T06:13:11;2.60;;;1.08;;
12181;SDS011;6154;51.550;12.138;2023-07-13T06:15:39;2.95;;;0.98;;
12181;SDS011;6154;51.550;12.138;2023-07-13T06:18:07;2.67;;;1.12;;
12181;SDS011;6154;51.550;12.138;2023-07-13T06:20:37;3.47;;;0.95;;
12181;SDS011;6154;51.550;12.138;2023-07-13T06:23:05;0.98;;;0.80;;
12181;SDS011;6154;51.550;12.138;2023-07-13T06:25:34;1.10;;;0.70;;
12181;SDS011;6154;51.550;12.138;2023-07-13T06:28:02;1.70;;;0.77;;
12181;SDS011;6154;51.550;12.138;2023-07-13T06:30:30;1.90;;;0.93;;
12181;SDS011;6154;51.550;12.138;2023-07-13T06:32:59;0.82;;;0.70;;
12181;SDS011;6154;51.550;12.138;2023-07-13T06:35:28;1.83;;;1.02;;
12181;SDS011;6154;51.550;12.138;2023-07-13T06:37:58;2.00;;;0.82;;
12181;SDS011;6154;51.550;12.138;2023-07-13T06:40:27;1.73;;;1.00;;
12181;SDS011;6154;51.550;12.138;2023-07-13T06:42:57;2.30;;;0.90;;
12181;SDS011;6154;51.550;12.138;2023-07-13T06:45:25;4.25;;;1.25;;
12181;SDS011;6154;51.550;12.138;2023-07-13T06:47:53;1.30;;;0.85;;
12181;SDS011;6154;51.550;12.138;2023-07-13T06:50:21;1.02;;;0.60;;
12181;SDS011;6154;51.550;12.138;2023-07-13T06:52:50;2.15;;;0.75;;
12181;SDS011;6154;51.550;12.138;2023-07-13T06:55:21;1.80;;;0.82;;
12181;SDS011;6154;51.550;12.138;2023-07-13T06:57:49;3.40;;;0.95;;
12181;SDS011;6154;51.550;12.138;2023-07-13T07:00:17;4.40;;;0.88;;
12181;SDS011;6154;51.550;12.138;2023-07-13T07:02:46;3.70;;;0.70;;
12181;SDS011;6154;51.550;12.138;2023-07-13T07:05:14;2.15;;;0.62;;
12181;SDS011;6154;51.550;12.138;2023-07-13T07:07:43;0.90;;;0.70;;
12181;SDS011;6154;51.550;12.138;2023-07-13T07:10:11;2.55;;;1.15;;
12181;SDS011;6154;51.550;12.138;2023-07-13T07:12:41;1.42;;;0.50;;
12181;SDS011;6154;51.550;12.138;2023-07-13T07:15:09;1.55;;;0.82;;
12181;SDS011;6154;51.550;12.138;2023-07-13T07:17:38;0.50;;;0.50;;
12181;SDS011;6154;51.550;12.138;2023-07-13T07:20:07;1.65;;;0.80;;
12181;SDS011;6154;51.550;12.138;2023-07-13T07:22:35;1.23;;;0.60;;
12181;SDS011;6154;51.550;12.138;2023-07-13T07:25:04;2.35;;;0.70;;
12181;SDS011;6154;51.550;12.138;2023-07-13T07:27:32;1.15;;;0.60;;
12181;SDS011;6154;51.550;12.138;2023-07-13T07:30:06;0.90;;;0.60;;
12181;SDS011;6154;51.550;12.138;2023-07-13T07:32:38;1.25;;;0.60;;
12181;SDS011;6154;51.550;12.138;2023-07-13T07:35:09;1.85;;;0.65;;
12181;SDS011;6154;51.550;12.138;2023-07-13T07:37:37;2.70;;;0.80;;
12181;SDS011;6154;51.550;12.138;2023-07-13T07:40:09;0.77;;;0.70;;
12181;SDS011;6154;51.550;12.138;2023-07-13T07:42:40;1.27;;;0.60;;
12181;SDS011;6154;51.550;12.138;2023-07-13T07:45:10;5.25;;;0.70;;
12181;SDS011;6154;51.550;12.138;2023-07-13T07:47:39;3.05;;;0.60;;
12181;SDS011;6154;51.550;12.138;2023-07-13T07:50:08;2.83;;;0.80;;
12181;SDS011;6154;51.550;12.138;2023-07-13T07:52:37;2.72;;;0.55;;
12181;SDS011;6154;51.550;12.138;2023-07-13T07:55:06;3.30;;;1.05;;
12181;SDS011;6154;51.550;12.138;2023-07-13T07:57:38;1.23;;;0.70;;
12181;SDS011;6154;51.550;12.138;2023-07-13T08:00:11;1.30;;;0.55;;
12181;SDS011;6154;51.550;12.138;2023-07-13T08:02:46;3.17;;;0.60;;
12181;SDS011;6154;51.550;12.138;2023-07-13T08:05:17;1.30;;;0.50;;
12181;SDS011;6154;51.550;12.138;2023-07-13T08:08:03;0.80;;;0.37;;
12181;SDS011;6154;51.550;12.138;2023-07-13T08:10:34;1.95;;;0.80;;
12181;SDS011;6154;51.550;12.138;2023-07-13T08:13:03;1.77;;;0.50;;
12181;SDS011;6154;51.550;12.138;2023-07-13T08:15:36;0.73;;;0.60;;
12181;SDS011;6154;51.550;12.138;2023-07-13T08:18:06;1.85;;;0.93;;
12181;SDS011;6154;51.550;12.138;2023-07-13T08:20:36;1.70;;;0.60;;
12181;SDS011;6154;51.550;12.138;2023-07-13T08:23:04;1.55;;;0.90;;
12181;SDS011;6154;51.550;12.138;2023-07-13T08:25:33;1.62;;;0.75;;
12181;SDS011;6154;51.550;12.138;2023-07-13T08:28:01;8.80;;;1.10;;
12181;SDS011;6154;51.550;12.138;2023-07-13T08:30:30;5.12;;;1.02;;
12181;SDS011;6154;51.550;12.138;2023-07-13T08:33:00;5.60;;;1.10;;
12181;SDS011;6154;51.550;12.138;2023-07-13T08:35:28;2.87;;;0.70;;
12181;SDS011;6154;51.550;12.138;2023-07-13T08:37:56;4.40;;;0.93;;
12181;SDS011;6154;51.550;12.138;2023-07-13T08:40:25;2.15;;;0.98;;
12181;SDS011;6154;51.550;12.138;2023-07-13T08:42:55;0.98;;;0.80;;
12181;SDS011;6154;51.550;12.138;2023-07-13T08:45:28;2.75;;;0.93;;
12181;SDS011;6154;51.550;12.138;2023-07-13T08:48:04;2.00;;;0.55;;
12181;SDS011;6154;51.550;12.138;2023-07-13T08:50:39;1.10;;;0.70;;
12181;SDS011;6154;51.550;12.138;2023-07-13T08:53:29;2.92;;;0.60;;
12181;SDS011;6154;51.550;12.138;2023-07-13T08:56:03;1.20;;;0.88;;
12181;SDS011;6154;51.550;12.138;2023-07-13T08:58:34;2.58;;;0.82;;
12181;SDS011;6154;51.550;12.138;2023-07-13T09:01:05;2.28;;;0.88;;
12181;SDS011;6154;51.550;12.138;2023-07-13T09:03:45;2.17;;;0.75;;
12181;SDS011;6154;51.550;12.138;2023-07-13T09:06:21;2.90;;;0.95;;
12181;SDS011;6154;51.550;12.138;2023-07-13T09:08:57;2.42;;;0.90;;
12181;SDS011;6154;51.550;12.138;2023-07-13T09:11:34;1.45;;;0.82;;
12181;SDS011;6154;51.550;12.138;2023-07-13T09:14:25;1.58;;;0.52;;
12181;SDS011;6154;51.550;12.138;2023-07-13T09:17:02;1.45;;;0.85;;
12181;SDS011;6154;51.550;12.138;2023-07-13T09:19:33;1.67;;;0.90;;
12181;SDS011;6154;51.550;12.138;2023-07-13T09:22:03;1.23;;;0.62;;
12181;SDS011;6154;51.550;12.138;2023-07-13T09:24:41;2.40;;;0.70;;
12181;SDS011;6154;51.550;12.138;2023-07-13T09:27:20;0.85;;;0.60;;
12181;SDS011;6154;51.550;12.138;2023-07-13T09:29:52;1.45;;;0.60;;
12181;SDS011;6154;51.550;12.138;2023-07-13T09:32:26;0.57;;;0.55;;
12181;SDS011;6154;51.550;12.138;2023-07-13T09:34:57;2.92;;;0.70;;
12181;SDS011;6154;51.550;12.138;2023-07-13T09:37:28;0.82;;;0.70;;
12181;SDS011;6154;51.550;12.138;2023-07-13T09:40:00;1.23;;;0.62;;
12181;SDS011;6154;51.550;12.138;2023-07-13T09:42:32;1.83;;;0.60;;
12181;SDS011;6154;51.550;12.138;2023-07-13T09:45:01;0.77;;;0.60;;
12181;SDS011;6154;51.550;12.138;2023-07-13T09:47:31;1.90;;;0.43;;
12181;SDS011;6154;51.550;12.138;2023-07-13T09:50:03;2.05;;;0.80;;
12181;SDS011;6154;51.550;12.138;2023-07-13T09:52:41;3.92;;;0.90;;
12181;SDS011;6154;51.550;12.138;2023-07-13T09:55:23;0.75;;;0.57;;
12181;SDS011;6154;51.550;12.138;2023-07-13T09:57:53;2.05;;;0.68;;
12181;SDS011;6154;51.550;12.138;2023-07-13T10:00:23;0.75;;;0.60;;
12181;SDS011;6154;51.550;12.138;2023-07-13T10:02:58;1.42;;;0.43;;
12181;SDS011;6154;51.550;12.138;2023-07-13T10:05:28;0.95;;;0.50;;
12181;SDS011;6154;51.550;12.138;2023-07-13T10:08:05;2.22;;;0.50;;
12181;SDS011;6154;51.550;12.138;2023-07-13T10:10:34;0.57;;;0.57;;
12181;SDS011;6154;51.550;12.138;2023-07-13T10:13:02;3.95;;;0.75;;
12181;SDS011;6154;51.550;12.138;2023-07-13T10:15:32;2.37;;;0.60;;
12181;SDS011;6154;51.550;12.138;2023-07-13T10:18:00;1.27;;;0.75;;
12181;SDS011;6154;51.550;12.138;2023-07-13T10:20:30;2.72;;;0.70;;
12181;SDS011;6154;51.550;12.138;2023-07-13T10:22:59;1.12;;;0.70;;
12181;SDS011;6154;51.550;12.138;2023-07-13T10:25:30;3.20;;;0.80;;
12181;SDS011;6154;51.550;12.138;2023-07-13T10:28:02;0.75;;;0.40;;
12181;SDS011;6154;51.550;12.138;2023-07-13T10:30:40;0.90;;;0.45;;
12181;SDS011;6154;51.550;12.138;2023-07-13T10:33:14;0.75;;;0.50;;
12181;SDS011;6154;51.550;12.138;2023-07-13T10:35:44;0.50;;;0.50;;
12181;SDS011;6154;51.550;12.138;2023-07-13T10:38:15;1.25;;;0.50;;
12181;SDS011;6154;51.550;12.138;2023-07-13T10:40:50;0.55;;;0.50;;
12181;SDS011;6154;51.550;12.138;2023-07-13T10:43:25;0.75;;;0.60;;
12181;SDS011;6154;51.550;12.138;2023-07-13T10:45:57;1.85;;;0.70;;
12181;SDS011;6154;51.550;12.138;2023-07-13T10:48:27;1.45;;;0.60;;
12181;SDS011;6154;51.550;12.138;2023-07-13T10:50:57;1.40;;;0.55;;
12181;SDS011;6154;51.550;12.138;2023-07-13T10:53:28;0.65;;;0.60;;
12181;SDS011;6154;51.550;12.138;2023-07-13T10:55:59;0.55;;;0.45;;
12181;SDS011;6154;51.550;12.138;2023-07-13T10:58:31;0.73;;;0.60;;
12181;SDS011;6154;51.550;12.138;2023-07-13T11:01:03;2.92;;;0.80;;
12181;SDS011;6154;51.550;12.138;2023-07-13T11:03:36;0.85;;;0.60;;
12181;SDS011;6154;51.550;12.138;2023-07-13T11:06:11;1.90;;;0.90;;
12181;SDS011;6154;51.550;12.138;2023-07-13T11:08:51;1.58;;;0.70;;
12181;SDS011;6154;51.550;12.138;2023-07-13T11:11:34;1.37;;;0.75;;
12181;SDS011;6154;51.550;12.138;2023-07-13T11:20:09;1.27;;;0.57;;
12181;SDS011;6154;51.550;12.138;2023-07-13T11:22:50;0.47;;;0.43;;
12181;SDS011;6154;51.550;12.138;2023-07-13T11:25:21;0.82;;;0.50;;
12181;SDS011;6154;51.550;12.138;2023-07-13T11:28:06;1.62;;;0.47;;
12181;SDS011;6154;51.550;12.138;2023-07-13T11:30:45;2.22;;;0.43;;
12181;SDS011;6154;51.550;12.138;2023-07-13T11:33:17;0.90;;;0.50;;
12181;SDS011;6154;51.550;12.138;2023-07-13T11:35:49;0.62;;;0.32;;
12181;SDS011;6154;51.550;12.138;2023-07-13T11:38:30;1.40;;;0.32;;
12181;SDS011;6154;51.550;12.138;2023-07-13T11:41:03;1.33;;;0.37;;
12181;SDS011;6154;51.550;12.138;2023-07-13T11:43:34;2.50;;;0.40;;
12181;SDS011;6154;51.550;12.138;2023-07-13T11:46:12;4.12;;;0.80;;
12181;SDS011;6154;51.550;12.138;2023-07-13T11:48:44;2.22;;;0.45;;
12181;SDS011;6154;51.550;12.138;2023-07-13T11:51:17;0.98;;;0.30;;
12181;SDS011;6154;51.550;12.138;2023-07-13T11:53:52;1.95;;;0.55;;
12181;SDS011;6154;51.550;12.138;2023-07-13T11:56:24;1.58;;;0.30;;
12181;SDS011;6154;51.550;12.138;2023-07-13T11:58:54;0.90;;;0.35;;
12181;SDS011;6154;51.550;12.138;2023-07-13T12:01:26;1.58;;;0.40;;
12181;SDS011;6154;51.550;12.138;2023-07-13T12:04:00;0.40;;;0.30;;
12181;SDS011;6154;51.550;12.138;2023-07-13T12:06:30;0.68;;;0.30;;
12181;SDS011;6154;51.550;12.138;2023-07-13T12:09:08;0.30;;;0.30;;
12181;SDS011;6154;51.550;12.138;2023-07-13T12:11:40;0.50;;;0.40;;
12181;SDS011;6154;51.550;12.138;2023-07-13T12:14:13;0.52;;;0.30;;
12181;SDS011;6154;51.550;12.138;2023-07-13T12:16:43;0.73;;;0.37;;
12181;SDS011;6154;51.550;12.138;2023-07-13T12:19:21;0.62;;;0.50;;
12181;SDS011;6154;51.550;12.138;2023-07-13T12:21:52;1.62;;;0.40;;
12181;SDS011;6154;51.550;12.138;2023-07-13T12:24:25;3.10;;;0.60;;
12181;SDS011;6154;51.550;12.138;2023-07-13T12:26:55;1.17;;;0.28;;
12181;SDS011;6154;51.550;12.138;2023-07-13T12:29:28;1.10;;;0.50;;
12181;SDS011;6154;51.550;12.138;2023-07-13T12:31:57;0.68;;;0.45;;
12181;SDS011;6154;51.550;12.138;2023-07-13T12:34:26;2.12;;;0.60;;
12181;SDS011;6154;51.550;12.138;2023-07-13T12:36:55;2.10;;;0.50;;
12181;SDS011;6154;51.550;12.138;2023-07-13T12:39:28;0.35;;;0.30;;
12181;SDS011;6154;51.550;12.138;2023-07-13T12:42:13;0.88;;;0.40;;
12181;SDS011;6154;51.550;12.138;2023-07-13T12:44:47;0.30;;;0.30;;
12181;SDS011;6154;51.550;12.138;2023-07-13T12:47:16;0.50;;;0.40;;
12181;SDS011;6154;51.550;12.138;2023-07-13T12:49:49;0.68;;;0.30;;
12181;SDS011;6154;51.550;12.138;2023-07-13T12:52:22;0.52;;;0.45;;
12181;SDS011;6154;51.550;12.138;2023-07-13T12:54:58;0.62;;;0.40;;
12181;SDS011;6154;51.550;12.138;2023-07-13T12:57:38;0.98;;;0.52;;
12181;SDS011;6154;51.550;12.138;2023-07-13T13:00:18;0.60;;;0.30;;
12181;SDS011;6154;51.550;12.138;2023-07-13T13:02:53;1.05;;;0.40;;
12181;SDS011;6154;51.550;12.138;2023-07-13T13:05:44;0.60;;;0.40;;
12181;SDS011;6154;51.550;12.138;2023-07-13T13:08:15;1.20;;;0.60;;
12181;SDS011;6154;51.550;12.138;2023-07-13T13:10:45;0.73;;;0.40;;
12181;SDS011;6154;51.550;12.138;2023-07-13T13:13:13;0.95;;;0.47;;
12181;SDS011;6154;51.550;12.138;2023-07-13T13:15:42;0.55;;;0.40;;
12181;SDS011;6154;51.550;12.138;2023-07-13T13:18:14;2.30;;;0.40;;
12181;SDS011;6154;51.550;12.138;2023-07-13T13:20:45;0.52;;;0.40;;
12181;SDS011;6154;51.550;12.138;2023-07-13T13:23:14;5.07;;;0.70;;
12181;SDS011;6154;51.550;12.138;2023-07-13T13:25:47;5.70;;;0.70;;
12181;SDS011;6154;51.550;12.138;2023-07-13T13:28:18;0.75;;;0.40;;
12181;SDS011;6154;51.550;12.138;2023-07-13T13:30:48;0.52;;;0.50;;
12181;SDS011;6154;51.550;12.138;2023-07-13T13:33:19;2.30;;;0.55;;
12181;SDS011;6154;51.550;12.138;2023-07-13T13:35:50;1.40;;;0.37;;
12181;SDS011;6154;51.550;12.138;2023-07-13T13:38:20;2.72;;;0.65;;
12181;SDS011;6154;51.550;12.138;2023-07-13T13:40:54;0.75;;;0.40;;
12181;SDS011;6154;51.550;12.138;2023-07-13T13:43:23;0.45;;;0.30;;
12181;SDS011;6154;51.550;12.138;2023-07-13T13:45:55;1.90;;;0.40;;
12181;SDS011;6154;51.550;12.138;2023-07-13T13:48:28;3.60;;;0.82;;
12181;SDS011;6154;51.550;12.138;2023-07-13T13:50:59;2.90;;;0.88;;
12181;SDS011;6154;51.550;12.138;2023-07-13T13:53:28;4.80;;;0.85;;
12181;SDS011;6154;51.550;12.138;2023-07-13T13:55:58;0.50;;;0.50;;
12181;SDS011;6154;51.550;12.138;2023-07-13T13:58:26;2.37;;;0.57;;
12181;SDS011;6154;51.550;12.138;2023-07-13T14:00:55;2.55;;;0.90;;
12181;SDS011;6154;51.550;12.138;2023-07-13T14:03:25;5.18;;;1.12;;
12181;SDS011;6154;51.550;12.138;2023-07-13T14:05:54;5.57;;;1.00;;
12181;SDS011;6154;51.550;12.138;2023-07-13T14:08:24;1.85;;;0.73;;
12181;SDS011;6154;51.550;12.138;2023-07-13T14:10:53;2.50;;;0.75;;
12181;SDS011;6154;51.550;12.138;2023-07-13T14:13:27;1.17;;;0.60;;
12181;SDS011;6154;51.550;12.138;2023-07-13T14:16:01;3.28;;;1.23;;
12181;SDS011;6154;51.550;12.138;2023-07-13T14:18:30;0.90;;;0.37;;
12181;SDS011;6154;51.550;12.138;2023-07-13T14:20:58;5.15;;;1.10;;
12181;SDS011;6154;51.550;12.138;2023-07-13T14:23:26;3.70;;;0.50;;
12181;SDS011;6154;51.550;12.138;2023-07-13T14:25:55;0.82;;;0.55;;
12181;SDS011;6154;51.550;12.138;2023-07-13T14:28:24;2.17;;;0.55;;
12181;SDS011;6154;51.550;12.138;2023-07-13T14:30:56;2.22;;;0.88;;
12181;SDS011;6154;51.550;12.138;2023-07-13T14:33:25;4.97;;;1.00;;
12181;SDS011;6154;51.550;12.138;2023-07-13T14:35:53;4.10;;;0.98;;
12181;SDS011;6154;51.550;12.138;2023-07-13T14:38:22;3.97;;;0.93;;
12181;SDS011;6154;51.550;12.138;2023-07-13T14:40:50;5.80;;;1.12;;
12181;SDS011;6154;51.550;12.138;2023-07-13T14:43:18;3.62;;;0.80;;
12181;SDS011;6154;51.550;12.138;2023-07-13T14:45:47;2.05;;;0.47;;
12181;SDS011;6154;51.550;12.138;2023-07-13T14:48:25;3.20;;;0.70;;
12181;SDS011;6154;51.550;12.138;2023-07-13T14:50:59;3.20;;;1.37;;
12181;SDS011;6154;51.550;12.138;2023-07-13T14:53:27;4.10;;;0.80;;
12181;SDS011;6154;51.550;12.138;2023-07-13T14:55:56;1.25;;;0.60;;
12181;SDS011;6154;51.550;12.138;2023-07-13T14:58:24;9.95;;;1.77;;
12181;SDS011;6154;51.550;12.138;2023-07-13T15:00:52;3.30;;;1.15;;
12181;SDS011;6154;51.550;12.138;2023-07-13T15:03:26;1.58;;;0.77;;
12181;SDS011;6154;51.550;12.138;2023-07-13T15:05:54;5.30;;;0.90;;
12181;SDS011;6154;51.550;12.138;2023-07-13T15:08:23;11.80;;;0.70;;
12181;SDS011;6154;51.550;12.138;2023-07-13T15:10:52;2.78;;;0.52;;
12181;SDS011;6154;51.550;12.138;2023-07-13T15:13:21;0.80;;;0.47;;
12181;SDS011;6154;51.550;12.138;2023-07-13T15:15:50;1.02;;;0.50;;